Thunder radar more information blitzortung!


Radar de pluja more information rain snow radar


Visita la nostra xarxa de llocs de meteo:

Template documentation
and downloads

And another site



No particular awareness of the weather is required.    There are no Weather-warnings

Pagina Historial Weather Underground text

Diari Resum May 4, 2017 Unitats:  Tant    Imperial   Mètric
« Previous Dia
SegĂźent Dia »
Diari Setmana Mensual Anual Personalitzada
  Maxima: Minima: Media:
Temperatura: 73 °F /  22.8 °C 51.4 °F /  10.8 °C 63.1 °F /  17.3 °C
Punt de rosada: 56.8 °F /  13.8 °C 48.6 °F /  9.2 °C 52.3 °F /  11.3 °C
Humitat: 93 % 51 % 69 %
Wind Speed: 11.5 mph /  18.5 km/h - 3.8 mph /  6.1 km/h
RĂ fegues de vent: 11.5 mph /  18.5 km/h - -
Vent:- - South
Pression baro: 30.1 in /  1017.8 hPa 29.9 in /  1011.7 hPa -
Precipitacions: 0 in /  0.0 mm    
Historical Graphs
 
 
Dades de taula per May 4, 2017
Temps Temperatura Punt de rosada Pression baro Vent Wind Speed RĂ fegues de vent Humitat Rainfall Rate (Hourly)
00:00 51.8 °F /  11.0 °C 48.9 °F /  9.4 °C 30 in /  1015.8 hPa Calm     90 % 0 in /  0.0 mm
00:02 54 °F /  12.2 °C 49.8 °F /  9.9 °C 30.1 in /  1017.8 hPa NE 2.3 mph /  3.7 km/h 2.3 mph /  3.7 km/h 86 % 0 in /  0.0 mm
00:07 54 °F /  12.2 °C 49.8 °F /  9.9 °C 30.1 in /  1017.8 hPa NNE 1.2 mph /  1.9 km/h   86 % 0 in /  0.0 mm
00:10 51.8 °F /  11.0 °C 48.9 °F /  9.4 °C 30 in /  1015.8 hPa Calm     90 % 0 in /  0.0 mm
00:25 51.8 °F /  11.0 °C 49.3 °F /  9.6 °C 30 in /  1015.8 hPa Calm     91 % 0 in /  0.0 mm
00:35 51.8 °F /  11.0 °C 49.3 °F /  9.6 °C 30 in /  1015.8 hPa Calm     91 % 0 in /  0.0 mm
00:45 51.6 °F /  10.9 °C 49.1 °F /  9.5 °C 30 in /  1015.8 hPa Calm     91 % 0 in /  0.0 mm
00:55 51.4 °F /  10.8 °C 48.6 °F /  9.2 °C 30 in /  1015.8 hPa SW 1 mph /  1.6 km/h 2 mph /  3.2 km/h 90 % 0 in /  0.0 mm
01:05 51.4 °F /  10.8 °C 48.9 °F /  9.4 °C 30 in /  1015.8 hPa SW 1 mph /  1.6 km/h 1 mph /  1.6 km/h 91 % 0 in /  0.0 mm
01:15 51.4 °F /  10.8 °C 48.9 °F /  9.4 °C 30 in /  1015.8 hPa Calm     91 % 0 in /  0.0 mm
01:25 51.4 °F /  10.8 °C 48.9 °F /  9.4 °C 30 in /  1015.8 hPa Calm     91 % 0 in /  0.0 mm
01:35 51.4 °F /  10.8 °C 48.9 °F /  9.4 °C 30 in /  1014.8 hPa Calm     91 % 0 in /  0.0 mm
01:45 51.4 °F /  10.8 °C 49.3 °F /  9.6 °C 30 in /  1014.8 hPa Calm     92 % 0 in /  0.0 mm
01:55 51.4 °F /  10.8 °C 48.9 °F /  9.4 °C 30 in /  1014.8 hPa Calm     91 % 0 in /  0.0 mm
02:05 51.4 °F /  10.8 °C 48.9 °F /  9.4 °C 30 in /  1014.8 hPa WSW 1 mph /  1.6 km/h 1 mph /  1.6 km/h 91 % 0 in /  0.0 mm
02:15 51.4 °F /  10.8 °C 49.3 °F /  9.6 °C 30 in /  1014.8 hPa Calm   1 mph /  1.6 km/h 92 % 0 in /  0.0 mm
02:25 51.4 °F /  10.8 °C 49.3 °F /  9.6 °C 30 in /  1014.8 hPa WSW 1 mph /  1.6 km/h 2 mph /  3.2 km/h 92 % 0 in /  0.0 mm
02:35 51.4 °F /  10.8 °C 49.3 °F /  9.6 °C 30 in /  1014.8 hPa Calm   1 mph /  1.6 km/h 92 % 0 in /  0.0 mm
02:45 51.6 °F /  10.9 °C 49.5 °F /  9.7 °C 30 in /  1014.8 hPa WSW 1 mph /  1.6 km/h 2 mph /  3.2 km/h 92 % 0 in /  0.0 mm
02:55 51.8 °F /  11.0 °C 49.5 °F /  9.7 °C 30 in /  1014.8 hPa WSW 2 mph /  3.2 km/h 2 mph /  3.2 km/h 92 % 0 in /  0.0 mm
03:05 51.6 °F /  10.9 °C 49.1 °F /  9.5 °C 30 in /  1014.8 hPa WSW 1 mph /  1.6 km/h 2 mph /  3.2 km/h 91 % 0 in /  0.0 mm
03:15 51.6 °F /  10.9 °C 49.1 °F /  9.5 °C 30 in /  1014.8 hPa WSW 2 mph /  3.2 km/h 3 mph /  4.8 km/h 91 % 0 in /  0.0 mm
03:25 51.6 °F /  10.9 °C 49.1 °F /  9.5 °C 30 in /  1014.8 hPa SW 1 mph /  1.6 km/h 2 mph /  3.2 km/h 91 % 0 in /  0.0 mm
03:35 52 °F /  11.1 °C 49.5 °F /  9.7 °C 30 in /  1014.8 hPa WSW 1 mph /  1.6 km/h 2 mph /  3.2 km/h 91 % 0 in /  0.0 mm
03:45 52.2 °F /  11.2 °C 49.8 °F /  9.9 °C 30 in /  1014.8 hPa WSW 1 mph /  1.6 km/h 2 mph /  3.2 km/h 92 % 0 in /  0.0 mm
03:55 52.5 °F /  11.4 °C 50.5 °F /  10.3 °C 30 in /  1014.8 hPa SW 1 mph /  1.6 km/h 1 mph /  1.6 km/h 93 % 0 in /  0.0 mm
04:05 52.7 °F /  11.5 °C 50.7 °F /  10.4 °C 30 in /  1014.8 hPa SSE 1 mph /  1.6 km/h 2 mph /  3.2 km/h 93 % 0 in /  0.0 mm
04:15 53.8 °F /  12.1 °C 51.8 °F /  11.0 °C 30 in /  1014.8 hPa SE 1 mph /  1.6 km/h 1 mph /  1.6 km/h 93 % 0 in /  0.0 mm
04:25 54.5 °F /  12.5 °C 52.5 °F /  11.4 °C 30 in /  1014.8 hPa SW 1 mph /  1.6 km/h 2 mph /  3.2 km/h 93 % 0 in /  0.0 mm
04:35 54.7 °F /  12.6 °C 52.3 °F /  11.3 °C 30 in /  1014.8 hPa SW 1 mph /  1.6 km/h 2 mph /  3.2 km/h 92 % 0 in /  0.0 mm
04:45 55.2 °F /  12.9 °C 52.5 °F /  11.4 °C 30 in /  1014.8 hPa SW 2 mph /  3.2 km/h 3 mph /  4.8 km/h 91 % 0 in /  0.0 mm
04:55 55.2 °F /  12.9 °C 52.3 °F /  11.3 °C 30 in /  1014.8 hPa SW 1 mph /  1.6 km/h 2 mph /  3.2 km/h 90 % 0 in /  0.0 mm
05:05 55.8 °F /  13.2 °C 52.5 °F /  11.4 °C 29.9 in /  1013.8 hPa WSW 2 mph /  3.2 km/h 2 mph /  3.2 km/h 89 % 0 in /  0.0 mm
05:15 57.4 °F /  14.1 °C 54.1 °F /  12.3 °C 29.9 in /  1013.8 hPa SW 1 mph /  1.6 km/h 3 mph /  4.8 km/h 89 % 0 in /  0.0 mm
05:25 58.3 °F /  14.6 °C 54.7 °F /  12.6 °C 30 in /  1014.8 hPa SW 1 mph /  1.6 km/h 2 mph /  3.2 km/h 88 % 0 in /  0.0 mm
05:35 59.4 °F /  15.2 °C 54.9 °F /  12.7 °C 30 in /  1014.8 hPa WSW 1 mph /  1.6 km/h 4 mph /  6.4 km/h 85 % 0 in /  0.0 mm
05:45 61 °F /  16.1 °C 55.8 °F /  13.2 °C 30 in /  1014.8 hPa SSW 1 mph /  1.6 km/h 4 mph /  6.4 km/h 83 % 0 in /  0.0 mm
05:55 62.1 °F /  16.7 °C 56.5 °F /  13.6 °C 29.9 in /  1013.8 hPa SSW 1 mph /  1.6 km/h 3 mph /  4.8 km/h 82 % 0 in /  0.0 mm
11:00 63 °F /  17.2 °C 56.7 °F /  13.7 °C 29.9 in /  1013.8 hPa WSW 3.5 mph /  5.6 km/h 3.5 mph /  5.6 km/h 80 % 0 in /  0.0 mm
11:05 62.2 °F /  16.8 °C 55.9 °F /  13.3 °C 29.9 in /  1013.8 hPa SSE 5.8 mph /  9.3 km/h 5.8 mph /  9.3 km/h 80 % 0 in /  0.0 mm
11:10 62.8 °F /  17.1 °C 55.8 °F /  13.2 °C 29.9 in /  1013.8 hPa SW 6.9 mph /  11.1 km/h 6.9 mph /  11.1 km/h 78 % 0 in /  0.0 mm
11:15 63.3 °F /  17.4 °C 56.3 °F /  13.5 °C 29.9 in /  1013.8 hPa SW 3.5 mph /  5.6 km/h 3.5 mph /  5.6 km/h 78 % 0 in /  0.0 mm
11:20 64 °F /  17.8 °C 56.7 °F /  13.7 °C 29.9 in /  1013.8 hPa SSW 5.8 mph /  9.3 km/h 5.8 mph /  9.3 km/h 77 % 0 in /  0.0 mm
11:21 64.2 °F /  17.9 °C 56.8 °F /  13.8 °C 29.9 in /  1013.8 hPa South 5.8 mph /  9.3 km/h 5.8 mph /  9.3 km/h 77 % 0 in /  0.0 mm
11:27 63.9 °F /  17.7 °C 55.9 °F /  13.3 °C 29.9 in /  1013.8 hPa SW 4.6 mph /  7.4 km/h 4.6 mph /  7.4 km/h 76 % 0 in /  0.0 mm
11:32 64.6 °F /  18.1 °C 56.5 °F /  13.6 °C 29.9 in /  1013.8 hPa South 4 mph /  6.4 km/h 4 mph /  6.4 km/h 75 % 0 in /  0.0 mm
11:37 64.4 °F /  18.0 °C 56.3 °F /  13.5 °C 29.9 in /  1013.8 hPa WSW 4.6 mph /  7.4 km/h 4.6 mph /  7.4 km/h 75 % 0 in /  0.0 mm
11:42 64.4 °F /  18.0 °C 55.9 °F /  13.3 °C 29.9 in /  1013.8 hPa SW 4.9 mph /  7.9 km/h 4.9 mph /  7.9 km/h 74 % 0 in /  0.0 mm
11:47 64.9 °F /  18.3 °C 56.5 °F /  13.6 °C 29.9 in /  1013.8 hPa SSE 6.9 mph /  11.1 km/h 6.9 mph /  11.1 km/h 74 % 0 in /  0.0 mm
11:52 65.5 °F /  18.6 °C 56.7 °F /  13.7 °C 29.9 in /  1013.8 hPa WSW 5.8 mph /  9.3 km/h 5.8 mph /  9.3 km/h 73 % 0 in /  0.0 mm
11:57 65.1 °F /  18.4 °C 55.9 °F /  13.3 °C 29.9 in /  1013.8 hPa WSW 3.3 mph /  5.3 km/h 3.3 mph /  5.3 km/h 72 % 0 in /  0.0 mm
11:58 65.1 °F /  18.4 °C 56.1 °F /  13.4 °C 29.9 in /  1013.8 hPa WNW 3.5 mph /  5.6 km/h 3.5 mph /  5.6 km/h 73 % 0 in /  0.0 mm
12:03 65.7 °F /  18.7 °C 56.5 °F /  13.6 °C 29.9 in /  1013.8 hPa SW 2.3 mph /  3.7 km/h 2.3 mph /  3.7 km/h 72 % 0 in /  0.0 mm
12:08 66 °F /  18.9 °C 56.7 °F /  13.7 °C 29.9 in /  1013.8 hPa SSE 3.5 mph /  5.6 km/h 3.5 mph /  5.6 km/h 72 % 0 in /  0.0 mm
12:13 66.6 °F /  19.2 °C 56.5 °F /  13.6 °C 29.9 in /  1013.8 hPa WSW 2.3 mph /  3.7 km/h 2.3 mph /  3.7 km/h 70 % 0 in /  0.0 mm
12:18 66.6 °F /  19.2 °C 56.8 °F /  13.8 °C 29.9 in /  1013.8 hPa WSW 4 mph /  6.4 km/h 4 mph /  6.4 km/h 71 % 0 in /  0.0 mm
12:23 66.4 °F /  19.1 °C 55.6 °F /  13.1 °C 29.9 in /  1013.8 hPa SW 5.8 mph /  9.3 km/h 5.8 mph /  9.3 km/h 68 % 0 in /  0.0 mm
12:28 66.9 °F /  19.4 °C 55.9 °F /  13.3 °C 29.9 in /  1013.8 hPa SE 3.5 mph /  5.6 km/h 3.5 mph /  5.6 km/h 68 % 0 in /  0.0 mm
12:33 67.1 °F /  19.5 °C 55.4 °F /  13.0 °C 29.9 in /  1013.8 hPa SSE 3.5 mph /  5.6 km/h 3.5 mph /  5.6 km/h 66 % 0 in /  0.0 mm
12:38 68.4 °F /  20.2 °C 55.8 °F /  13.2 °C 29.9 in /  1013.8 hPa WSW 4.6 mph /  7.4 km/h 4.6 mph /  7.4 km/h 64 % 0 in /  0.0 mm
12:43 68.7 °F /  20.4 °C 54.7 °F /  12.6 °C 29.9 in /  1013.8 hPa WSW 4.6 mph /  7.4 km/h 4.6 mph /  7.4 km/h 61 % 0 in /  0.0 mm
12:48 69.1 °F /  20.6 °C 55.9 °F /  13.3 °C 29.9 in /  1013.8 hPa WSW 5.8 mph /  9.3 km/h 5.8 mph /  9.3 km/h 63 % 0 in /  0.0 mm
12:53 69.6 °F /  20.9 °C 55 °F /  12.8 °C 29.9 in /  1013.8 hPa SSE 1.4 mph /  2.3 km/h 1.4 mph /  2.3 km/h 60 % 0 in /  0.0 mm
12:58 69.6 °F /  20.9 °C 55 °F /  12.8 °C 29.9 in /  1013.8 hPa SSE 5.8 mph /  9.3 km/h 5.8 mph /  9.3 km/h 60 % 0 in /  0.0 mm
13:03 69.8 °F /  21.0 °C 54.9 °F /  12.7 °C 29.9 in /  1013.8 hPa WSW 6.9 mph /  11.1 km/h 6.9 mph /  11.1 km/h 59 % 0 in /  0.0 mm
13:08 69.4 °F /  20.8 °C 53.1 °F /  11.7 °C 29.9 in /  1013.8 hPa South 5.8 mph /  9.3 km/h 5.8 mph /  9.3 km/h 56 % 0 in /  0.0 mm
13:13 70.9 °F /  21.6 °C 55.4 °F /  13.0 °C 29.9 in /  1013.8 hPa SW 4.3 mph /  6.9 km/h 4.3 mph /  6.9 km/h 58 % 0 in /  0.0 mm
13:18 69.8 °F /  21.0 °C 52.9 °F /  11.6 °C 29.9 in /  1013.8 hPa WSW 10.4 mph /  16.7 km/h 10.4 mph /  16.7 km/h 55 % 0 in /  0.0 mm
13:23 70.2 °F /  21.2 °C 53.2 °F /  11.8 °C 29.9 in /  1013.8 hPa SW 11.5 mph /  18.5 km/h 11.5 mph /  18.5 km/h 55 % 0 in /  0.0 mm
13:28 70.9 °F /  21.6 °C 54.3 °F /  12.4 °C 29.9 in /  1013.8 hPa SW 8.5 mph /  13.7 km/h 8.5 mph /  13.7 km/h 56 % 0 in /  0.0 mm
13:33 71.6 °F /  22.0 °C 54.7 °F /  12.6 °C 29.9 in /  1013.8 hPa NW 4.7 mph /  7.6 km/h 4.7 mph /  7.6 km/h 55 % 0 in /  0.0 mm
13:38 70.5 °F /  21.4 °C 53.6 °F /  12.0 °C 29.9 in /  1013.8 hPa SW 8.5 mph /  13.7 km/h 8.5 mph /  13.7 km/h 55 % 0 in /  0.0 mm
13:43 71.1 °F /  21.7 °C 53.6 °F /  12.0 °C 29.9 in /  1012.8 hPa WSW 8.1 mph /  13.0 km/h 8.1 mph /  13.0 km/h 54 % 0 in /  0.0 mm
13:48 72.1 °F /  22.3 °C 54.7 °F /  12.6 °C 29.9 in /  1012.8 hPa WSW 5.8 mph /  9.3 km/h 5.8 mph /  9.3 km/h 54 % 0 in /  0.0 mm
13:53 71.1 °F /  21.7 °C 53.1 °F /  11.7 °C 29.9 in /  1012.8 hPa SSW 8.1 mph /  13.0 km/h 8.1 mph /  13.0 km/h 53 % 0 in /  0.0 mm
13:58 71.1 °F /  21.7 °C 53.1 °F /  11.7 °C 29.9 in /  1013.8 hPa SSW 6.9 mph /  11.1 km/h 6.9 mph /  11.1 km/h 53 % 0 in /  0.0 mm
14:03 71.8 °F /  22.1 °C 53.8 °F /  12.1 °C 29.9 in /  1013.8 hPa SSE 5.8 mph /  9.3 km/h 5.8 mph /  9.3 km/h 53 % 0 in /  0.0 mm
14:08 72.1 °F /  22.3 °C 54.1 °F /  12.3 °C 29.9 in /  1013.8 hPa South 3.5 mph /  5.6 km/h 3.5 mph /  5.6 km/h 53 % 0 in /  0.0 mm
14:13 72 °F /  22.2 °C 53.4 °F /  11.9 °C 29.9 in /  1012.8 hPa SSW 6.9 mph /  11.1 km/h 6.9 mph /  11.1 km/h 52 % 0 in /  0.0 mm
14:18 72 °F /  22.2 °C 54 °F /  12.2 °C 29.9 in /  1012.8 hPa WSW 5.8 mph /  9.3 km/h 5.8 mph /  9.3 km/h 53 % 0 in /  0.0 mm
14:23 71.8 °F /  22.1 °C 53.8 °F /  12.1 °C 29.9 in /  1012.8 hPa SSE 5.8 mph /  9.3 km/h 5.8 mph /  9.3 km/h 53 % 0 in /  0.0 mm
14:28 71.8 °F /  22.1 °C 53.8 °F /  12.1 °C 29.9 in /  1012.8 hPa SSE 8.1 mph /  13.0 km/h 8.1 mph /  13.0 km/h 53 % 0 in /  0.0 mm
14:33 72.3 °F /  22.4 °C 53.8 °F /  12.1 °C 29.9 in /  1012.8 hPa East 3.6 mph /  5.8 km/h 3.6 mph /  5.8 km/h 52 % 0 in /  0.0 mm
14:38 72.1 °F /  22.3 °C 54.1 °F /  12.3 °C 29.9 in /  1012.8 hPa SSW 9.2 mph /  14.8 km/h 9.2 mph /  14.8 km/h 53 % 0 in /  0.0 mm
14:43 71.6 °F /  22.0 °C 53.6 °F /  12.0 °C 29.9 in /  1012.8 hPa South 5.8 mph /  9.3 km/h 5.8 mph /  9.3 km/h 53 % 0 in /  0.0 mm
14:48 72.3 °F /  22.4 °C 53.8 °F /  12.1 °C 29.9 in /  1012.8 hPa South 5.8 mph /  9.3 km/h 5.8 mph /  9.3 km/h 52 % 0 in /  0.0 mm
14:53 72.1 °F /  22.3 °C 53.4 °F /  11.9 °C 29.9 in /  1012.8 hPa SW 6.9 mph /  11.1 km/h 6.9 mph /  11.1 km/h 52 % 0 in /  0.0 mm
14:58 72.3 °F /  22.4 °C 53.8 °F /  12.1 °C 29.9 in /  1012.8 hPa WNW 5.8 mph /  9.3 km/h 5.8 mph /  9.3 km/h 52 % 0 in /  0.0 mm
15:03 72.9 °F /  22.7 °C 54.1 °F /  12.3 °C 29.9 in /  1012.8 hPa South 4.6 mph /  7.4 km/h 4.6 mph /  7.4 km/h 52 % 0 in /  0.0 mm
15:04 72.9 °F /  22.7 °C 54.1 °F /  12.3 °C 29.9 in /  1012.8 hPa South 4.7 mph /  7.6 km/h 4.7 mph /  7.6 km/h 52 % 0 in /  0.0 mm
15:09 72.5 °F /  22.5 °C 54 °F /  12.2 °C 29.9 in /  1012.8 hPa SW 9.7 mph /  15.6 km/h 9.7 mph /  15.6 km/h 52 % 0 in /  0.0 mm
15:14 73 °F /  22.8 °C 54.3 °F /  12.4 °C 29.9 in /  1012.8 hPa SW 4 mph /  6.4 km/h 4 mph /  6.4 km/h 52 % 0 in /  0.0 mm
15:19 72.9 °F /  22.7 °C 54.1 °F /  12.3 °C 29.9 in /  1012.8 hPa SSW 9.2 mph /  14.8 km/h 9.2 mph /  14.8 km/h 52 % 0 in /  0.0 mm
15:24 72.1 °F /  22.3 °C 53.1 °F /  11.7 °C 29.9 in /  1012.8 hPa West 4.6 mph /  7.4 km/h 4.6 mph /  7.4 km/h 51 % 0 in /  0.0 mm
15:29 71.8 °F /  22.1 °C 52.7 °F /  11.5 °C 29.9 in /  1011.7 hPa SSW 9.2 mph /  14.8 km/h 9.2 mph /  14.8 km/h 51 % 0 in /  0.0 mm
15:34 72.5 °F /  22.5 °C 54 °F /  12.2 °C 29.9 in /  1011.7 hPa SW 4.6 mph /  7.4 km/h 4.6 mph /  7.4 km/h 52 % 0 in /  0.0 mm
15:39 72 °F /  22.2 °C 52.9 °F /  11.6 °C 29.9 in /  1011.7 hPa SW 5.8 mph /  9.3 km/h 5.8 mph /  9.3 km/h 51 % 0 in /  0.0 mm
15:44 72 °F /  22.2 °C 52.9 °F /  11.6 °C 29.9 in /  1011.7 hPa South 5.8 mph /  9.3 km/h 5.8 mph /  9.3 km/h 51 % 0 in /  0.0 mm
15:49 72.3 °F /  22.4 °C 53.2 °F /  11.8 °C 29.9 in /  1011.7 hPa WSW 10.2 mph /  16.4 km/h 10.2 mph /  16.4 km/h 51 % 0 in /  0.0 mm
15:54 70.2 °F /  21.2 °C 51.3 °F /  10.7 °C 29.9 in /  1011.7 hPa South 8.1 mph /  13.0 km/h 8.1 mph /  13.0 km/h 51 % 0 in /  0.0 mm
15:59 71.1 °F /  21.7 °C 52 °F /  11.1 °C 29.9 in /  1011.7 hPa SW 8.1 mph /  13.0 km/h 8.1 mph /  13.0 km/h 51 % 0 in /  0.0 mm
16:04 71.6 °F /  22.0 °C 53.1 °F /  11.7 °C 29.9 in /  1011.7 hPa WSW 8.5 mph /  13.7 km/h 8.5 mph /  13.7 km/h 52 % 0 in /  0.0 mm
16:09 72 °F /  22.2 °C 53.4 °F /  11.9 °C 29.9 in /  1011.7 hPa SSE 6.2 mph /  10.0 km/h 6.2 mph /  10.0 km/h 52 % 0 in /  0.0 mm
16:14 71.6 °F /  22.0 °C 53.1 °F /  11.7 °C 29.9 in /  1011.7 hPa SW 6.9 mph /  11.1 km/h 6.9 mph /  11.1 km/h 52 % 0 in /  0.0 mm
16:19 72.3 °F /  22.4 °C 53.8 °F /  12.1 °C 29.9 in /  1011.7 hPa WSW 4.6 mph /  7.4 km/h 4.6 mph /  7.4 km/h 52 % 0 in /  0.0 mm
16:24 72.1 °F /  22.3 °C 53.4 °F /  11.9 °C 29.9 in /  1011.7 hPa WSW 4.6 mph /  7.4 km/h 4.6 mph /  7.4 km/h 52 % 0 in /  0.0 mm
16:29 71.6 °F /  22.0 °C 53.1 °F /  11.7 °C 29.9 in /  1011.7 hPa WSW 8.5 mph /  13.7 km/h 8.5 mph /  13.7 km/h 52 % 0 in /  0.0 mm
16:34 71.2 °F /  21.8 °C 52.7 °F /  11.5 °C 29.9 in /  1011.7 hPa SSW 9.2 mph /  14.8 km/h 9.2 mph /  14.8 km/h 52 % 0 in /  0.0 mm
16:39 71.6 °F /  22.0 °C 53.1 °F /  11.7 °C 29.9 in /  1011.7 hPa SW 7.8 mph /  12.6 km/h 7.8 mph /  12.6 km/h 52 % 0 in /  0.0 mm
16:44 71.4 °F /  21.9 °C 52.9 °F /  11.6 °C 29.9 in /  1011.7 hPa SSW 5.8 mph /  9.3 km/h 5.8 mph /  9.3 km/h 52 % 0 in /  0.0 mm
16:49 70.7 °F /  21.5 °C 51.6 °F /  10.9 °C 29.9 in /  1011.7 hPa SSE 6.9 mph /  11.1 km/h 6.9 mph /  11.1 km/h 51 % 0 in /  0.0 mm
16:54 71.2 °F /  21.8 °C 52.7 °F /  11.5 °C 29.9 in /  1011.7 hPa SW 8.1 mph /  13.0 km/h 8.1 mph /  13.0 km/h 52 % 0 in /  0.0 mm
16:59 70.7 °F /  21.5 °C 52.2 °F /  11.2 °C 29.9 in /  1011.7 hPa West 8.1 mph /  13.0 km/h 8.1 mph /  13.0 km/h 52 % 0 in /  0.0 mm
17:04 71.1 °F /  21.7 °C 52.5 °F /  11.4 °C 29.9 in /  1011.7 hPa NW 3.1 mph /  5.0 km/h 3.1 mph /  5.0 km/h 52 % 0 in /  0.0 mm
17:09 71.4 °F /  21.9 °C 52.9 °F /  11.6 °C 29.9 in /  1011.7 hPa WSW 3.5 mph /  5.6 km/h 3.5 mph /  5.6 km/h 52 % 0 in /  0.0 mm
17:14 70.9 °F /  21.6 °C 52.3 °F /  11.3 °C 29.9 in /  1011.7 hPa SSE 5.8 mph /  9.3 km/h 5.8 mph /  9.3 km/h 52 % 0 in /  0.0 mm
17:19 71.6 °F /  22.0 °C 53.6 °F /  12.0 °C 29.9 in /  1011.7 hPa WSW 5.8 mph /  9.3 km/h 5.8 mph /  9.3 km/h 53 % 0 in /  0.0 mm
17:24 71.6 °F /  22.0 °C 53.1 °F /  11.7 °C 29.9 in /  1011.7 hPa SSE 4.6 mph /  7.4 km/h 4.6 mph /  7.4 km/h 52 % 0 in /  0.0 mm
17:29 70.5 °F /  21.4 °C 52 °F /  11.1 °C 29.9 in /  1012.8 hPa SW 4.6 mph /  7.4 km/h 4.6 mph /  7.4 km/h 52 % 0 in /  0.0 mm
17:34 71.1 °F /  21.7 °C 53.1 °F /  11.7 °C 29.9 in /  1012.8 hPa SW 3.1 mph /  5.0 km/h 3.1 mph /  5.0 km/h 53 % 0 in /  0.0 mm
17:39 70.7 °F /  21.5 °C 52.2 °F /  11.2 °C 29.9 in /  1012.8 hPa SSW 5.8 mph /  9.3 km/h 5.8 mph /  9.3 km/h 52 % 0 in /  0.0 mm
17:44 70.9 °F /  21.6 °C 52.3 °F /  11.3 °C 29.9 in /  1011.7 hPa SSW 5.8 mph /  9.3 km/h 5.8 mph /  9.3 km/h 52 % 0 in /  0.0 mm
17:49 70.2 °F /  21.2 °C 51.6 °F /  10.9 °C 29.9 in /  1011.7 hPa SSW 3.6 mph /  5.8 km/h 3.6 mph /  5.8 km/h 52 % 0 in /  0.0 mm
17:54 69.4 °F /  20.8 °C 52.2 °F /  11.2 °C 29.9 in /  1011.7 hPa SSE 4.6 mph /  7.4 km/h 4.6 mph /  7.4 km/h 54 % 0 in /  0.0 mm
17:59 69.4 °F /  20.8 °C 52.2 °F /  11.2 °C 29.9 in /  1011.7 hPa WSW 4.6 mph /  7.4 km/h 4.6 mph /  7.4 km/h 54 % 0 in /  0.0 mm
18:04 68.7 °F /  20.4 °C 51.4 °F /  10.8 °C 29.9 in /  1011.7 hPa SSW 4.6 mph /  7.4 km/h 4.6 mph /  7.4 km/h 54 % 0 in /  0.0 mm
18:09 68.5 °F /  20.3 °C 51.3 °F /  10.7 °C 29.9 in /  1011.7 hPa SW 5.8 mph /  9.3 km/h 5.8 mph /  9.3 km/h 54 % 0 in /  0.0 mm
18:14 68.4 °F /  20.2 °C 51.6 °F /  10.9 °C 29.9 in /  1011.7 hPa WSW 5.8 mph /  9.3 km/h 5.8 mph /  9.3 km/h 55 % 0 in /  0.0 mm
18:19 68.4 °F /  20.2 °C 51.6 °F /  10.9 °C 29.9 in /  1011.7 hPa SSW 2.3 mph /  3.7 km/h 2.3 mph /  3.7 km/h 55 % 0 in /  0.0 mm
18:24 68.7 °F /  20.4 °C 52 °F /  11.1 °C 29.9 in /  1011.7 hPa South 2.3 mph /  3.7 km/h 2.3 mph /  3.7 km/h 55 % 0 in /  0.0 mm
18:29 68.2 °F /  20.1 °C 51.4 °F /  10.8 °C 29.9 in /  1011.7 hPa SW 2.3 mph /  3.7 km/h 2.3 mph /  3.7 km/h 55 % 0 in /  0.0 mm
18:34 67.3 °F /  19.6 °C 51.1 °F /  10.6 °C 29.9 in /  1011.7 hPa ESE 5.8 mph /  9.3 km/h 5.8 mph /  9.3 km/h 56 % 0 in /  0.0 mm
18:39 67.1 °F /  19.5 °C 51.4 °F /  10.8 °C 29.9 in /  1011.7 hPa WSW 3.8 mph /  6.1 km/h 3.8 mph /  6.1 km/h 57 % 0 in /  0.0 mm
18:44 66.9 °F /  19.4 °C 51.6 °F /  10.9 °C 29.9 in /  1011.7 hPa SSW 3.6 mph /  5.8 km/h 3.6 mph /  5.8 km/h 58 % 0 in /  0.0 mm
18:49 66.4 °F /  19.1 °C 51.3 °F /  10.7 °C 29.9 in /  1011.7 hPa SW 5.8 mph /  9.3 km/h 5.8 mph /  9.3 km/h 58 % 0 in /  0.0 mm
18:54 66 °F /  18.9 °C 51.3 °F /  10.7 °C 29.9 in /  1011.7 hPa WSW 3.5 mph /  5.6 km/h 3.5 mph /  5.6 km/h 59 % 0 in /  0.0 mm
18:59 65.5 °F /  18.6 °C 51.3 °F /  10.7 °C 29.9 in /  1012.8 hPa SW 6.2 mph /  10.0 km/h 6.2 mph /  10.0 km/h 60 % 0 in /  0.0 mm
19:04 65.3 °F /  18.5 °C 51.4 °F /  10.8 °C 29.9 in /  1012.8 hPa West 5.8 mph /  9.3 km/h 5.8 mph /  9.3 km/h 61 % 0 in /  0.0 mm
19:09 65.1 °F /  18.4 °C 51.8 °F /  11.0 °C 29.9 in /  1012.8 hPa WSW 5.8 mph /  9.3 km/h 5.8 mph /  9.3 km/h 62 % 0 in /  0.0 mm
19:14 64.9 °F /  18.3 °C 51.6 °F /  10.9 °C 29.9 in /  1012.8 hPa SSW 4.6 mph /  7.4 km/h 4.6 mph /  7.4 km/h 62 % 0 in /  0.0 mm
19:19 64.6 °F /  18.1 °C 51.6 °F /  10.9 °C 29.9 in /  1012.8 hPa South 7.6 mph /  12.2 km/h 7.6 mph /  12.2 km/h 63 % 0 in /  0.0 mm
19:24 64.6 °F /  18.1 °C 51.6 °F /  10.9 °C 29.9 in /  1012.8 hPa SW 3.5 mph /  5.6 km/h 3.5 mph /  5.6 km/h 63 % 0 in /  0.0 mm
19:25 57.9 °F /  14.4 °C 51.8 °F /  11.0 °C 30 in /  1014.8 hPa NE 2 mph /  3.2 km/h 4 mph /  6.4 km/h 80 % 0 in /  0.0 mm
19:29 64.2 °F /  17.9 °C 51.4 °F /  10.8 °C 29.9 in /  1012.8 hPa SW 5.8 mph /  9.3 km/h 5.8 mph /  9.3 km/h 63 % 0 in /  0.0 mm
19:34 64 °F /  17.8 °C 51.3 °F /  10.7 °C 29.9 in /  1012.8 hPa WSW 4.6 mph /  7.4 km/h 4.6 mph /  7.4 km/h 63 % 0 in /  0.0 mm
19:35 57.9 °F /  14.4 °C 51.8 °F /  11.0 °C 30 in /  1014.8 hPa NE 3 mph /  4.8 km/h 4 mph /  6.4 km/h 80 % 0 in /  0.0 mm
19:39 63.9 °F /  17.7 °C 51.4 °F /  10.8 °C 29.9 in /  1012.8 hPa ESE 4.6 mph /  7.4 km/h 4.6 mph /  7.4 km/h 64 % 0 in /  0.0 mm
19:44 63.5 °F /  17.5 °C 51.1 °F /  10.6 °C 29.9 in /  1013.8 hPa West 5.8 mph /  9.3 km/h 5.8 mph /  9.3 km/h 64 % 0 in /  0.0 mm
19:45 57.9 °F /  14.4 °C 51.8 °F /  11.0 °C 30 in /  1014.8 hPa NE 2 mph /  3.2 km/h 3 mph /  4.8 km/h 80 % 0 in /  0.0 mm
19:49 63.5 °F /  17.5 °C 51.1 °F /  10.6 °C 29.9 in /  1013.8 hPa WSW 2.6 mph /  4.2 km/h 2.6 mph /  4.2 km/h 64 % 0 in /  0.0 mm
19:54 63.1 °F /  17.3 °C 50.7 °F /  10.4 °C 29.9 in /  1013.8 hPa SW 5.8 mph /  9.3 km/h 5.8 mph /  9.3 km/h 64 % 0 in /  0.0 mm
19:55 57.9 °F /  14.4 °C 51.8 °F /  11.0 °C 30 in /  1014.8 hPa NE 1 mph /  1.6 km/h 2 mph /  3.2 km/h 80 % 0 in /  0.0 mm
19:59 63 °F /  17.2 °C 50.5 °F /  10.3 °C 29.9 in /  1013.8 hPa WSW 3.5 mph /  5.6 km/h 3.5 mph /  5.6 km/h 64 % 0 in /  0.0 mm
20:04 62.8 °F /  17.1 °C 50.7 °F /  10.4 °C 29.9 in /  1013.8 hPa SSW 5.8 mph /  9.3 km/h 5.8 mph /  9.3 km/h 65 % 0 in /  0.0 mm
20:05 57.7 °F /  14.3 °C 51.6 °F /  10.9 °C 30 in /  1015.8 hPa Calm   2 mph /  3.2 km/h 80 % 0 in /  0.0 mm
20:09 62.6 °F /  17.0 °C 50.7 °F /  10.4 °C 29.9 in /  1013.8 hPa WSW 3.5 mph /  5.6 km/h 3.5 mph /  5.6 km/h 65 % 0 in /  0.0 mm
20:14 62.6 °F /  17.0 °C 50.7 °F /  10.4 °C 29.9 in /  1012.8 hPa SW 3.5 mph /  5.6 km/h 3.5 mph /  5.6 km/h 65 % 0 in /  0.0 mm
20:15 57.7 °F /  14.3 °C 52 °F /  11.1 °C 30 in /  1015.8 hPa ENE 1 mph /  1.6 km/h 2 mph /  3.2 km/h 81 % 0 in /  0.0 mm
20:19 62.2 °F /  16.8 °C 50.4 °F /  10.2 °C 29.9 in /  1012.8 hPa WSW 3.5 mph /  5.6 km/h 3.5 mph /  5.6 km/h 65 % 0 in /  0.0 mm
20:20 62.2 °F /  16.8 °C 50.4 °F /  10.2 °C 29.9 in /  1012.8 hPa SW 3.5 mph /  5.6 km/h 3.5 mph /  5.6 km/h 65 % 0 in /  0.0 mm
20:25 62.2 °F /  16.8 °C 50.4 °F /  10.2 °C 29.9 in /  1012.8 hPa SSW 2 mph /  3.2 km/h 2 mph /  3.2 km/h 65 % 0 in /  0.0 mm
20:30 62.1 °F /  16.7 °C 50.2 °F /  10.1 °C 29.9 in /  1013.8 hPa SSW 2.3 mph /  3.7 km/h 2.3 mph /  3.7 km/h 65 % 0 in /  0.0 mm
20:35 62.1 °F /  16.7 °C 50.2 °F /  10.1 °C 29.9 in /  1013.8 hPa SW 2.3 mph /  3.7 km/h 2.3 mph /  3.7 km/h 65 % 0 in /  0.0 mm
20:40 61.9 °F /  16.6 °C 50 °F /  10.0 °C 29.9 in /  1013.8 hPa WSW 2.4 mph /  3.9 km/h 2.4 mph /  3.9 km/h 65 % 0 in /  0.0 mm
20:45 61.7 °F /  16.5 °C 49.8 °F /  9.9 °C 29.9 in /  1013.8 hPa WSW 1.2 mph /  1.9 km/h 1.2 mph /  1.9 km/h 65 % 0 in /  0.0 mm
20:50 61.7 °F /  16.5 °C 49.8 °F /  9.9 °C 29.9 in /  1013.8 hPa WSW 1.2 mph /  1.9 km/h   65 % 0 in /  0.0 mm
20:55 61.5 °F /  16.4 °C 49.6 °F /  9.8 °C 29.9 in /  1013.8 hPa ENE 2.4 mph /  3.9 km/h 2.4 mph /  3.9 km/h 65 % 0 in /  0.0 mm
21:00 61.3 °F /  16.3 °C 49.5 °F /  9.7 °C 29.9 in /  1013.8 hPa NE 2.6 mph /  4.2 km/h 2.6 mph /  4.2 km/h 65 % 0 in /  0.0 mm
21:05 61.2 °F /  16.2 °C 50.9 °F /  10.5 °C 29.9 in /  1013.8 hPa NE 3.6 mph /  5.8 km/h 3.6 mph /  5.8 km/h 69 % 0 in /  0.0 mm
21:10 61 °F /  16.1 °C 51.4 °F /  10.8 °C 29.9 in /  1013.8 hPa East 3.5 mph /  5.6 km/h 3.5 mph /  5.6 km/h 71 % 0 in /  0.0 mm
21:15 60.8 °F /  16.0 °C 51.3 °F /  10.7 °C 29.9 in /  1013.8 hPa ESE 4.6 mph /  7.4 km/h 4.6 mph /  7.4 km/h 71 % 0 in /  0.0 mm
21:20 60.8 °F /  16.0 °C 52.2 °F /  11.2 °C 29.9 in /  1013.8 hPa ENE 4.6 mph /  7.4 km/h 4.6 mph /  7.4 km/h 73 % 0 in /  0.0 mm
21:25 57.4 °F /  14.1 °C 50.9 °F /  10.5 °C 29.9 in /  1013.8 hPa NE 2 mph /  3.2 km/h 4 mph /  6.4 km/h 79 % 0 in /  0.0 mm
21:30 60.6 °F /  15.9 °C 52.3 °F /  11.3 °C 29.9 in /  1013.8 hPa ESE 3.5 mph /  5.6 km/h 3.5 mph /  5.6 km/h 74 % 0 in /  0.0 mm
21:35 60.4 °F /  15.8 °C 52.2 °F /  11.2 °C 29.9 in /  1013.8 hPa ESE 3.5 mph /  5.6 km/h 3.5 mph /  5.6 km/h 74 % 0 in /  0.0 mm
21:40 60.3 °F /  15.7 °C 52 °F /  11.1 °C 29.9 in /  1013.8 hPa ESE 5.8 mph /  9.3 km/h 5.8 mph /  9.3 km/h 74 % 0 in /  0.0 mm
21:45 60.1 °F /  15.6 °C 51.8 °F /  11.0 °C 29.9 in /  1013.8 hPa ENE 3.1 mph /  5.0 km/h 3.1 mph /  5.0 km/h 74 % 0 in /  0.0 mm
21:50 60.1 °F /  15.6 °C 52.2 °F /  11.2 °C 29.9 in /  1013.8 hPa East 2.3 mph /  3.7 km/h 2.3 mph /  3.7 km/h 75 % 0 in /  0.0 mm
21:55 59.9 °F /  15.5 °C 52 °F /  11.1 °C 29.9 in /  1013.8 hPa ESE 2.9 mph /  4.7 km/h 2.9 mph /  4.7 km/h 75 % 0 in /  0.0 mm
22:00 59.7 °F /  15.4 °C 51.8 °F /  11.0 °C 30 in /  1014.8 hPa South 1.2 mph /  1.9 km/h   75 % 0 in /  0.0 mm
22:05 59.7 °F /  15.4 °C 51.8 °F /  11.0 °C 30 in /  1014.8 hPa SSE 1.2 mph /  1.9 km/h 1.2 mph /  1.9 km/h 75 % 0 in /  0.0 mm
22:10 59.5 °F /  15.3 °C 51.6 °F /  10.9 °C 30 in /  1014.8 hPa ENE 2.6 mph /  4.2 km/h 2.6 mph /  4.2 km/h 75 % 0 in /  0.0 mm
22:11 59.5 °F /  15.3 °C 51.6 °F /  10.9 °C 30 in /  1014.8 hPa ESE 3.5 mph /  5.6 km/h 3.5 mph /  5.6 km/h 75 % 0 in /  0.0 mm
22:15 56.3 °F /  13.5 °C 50.5 °F /  10.3 °C 30 in /  1014.8 hPa Calm     81 % 0 in /  0.0 mm
22:16 59.5 °F /  15.3 °C 52 °F /  11.1 °C 30 in /  1014.8 hPa East 2.4 mph /  3.9 km/h 2.4 mph /  3.9 km/h 76 % 0 in /  0.0 mm
22:21 59.5 °F /  15.3 °C 52 °F /  11.1 °C 30 in /  1014.8 hPa East 2.3 mph /  3.7 km/h 2.4 mph /  3.9 km/h 76 % 0 in /  0.0 mm
22:25 56.1 °F /  13.4 °C 50.4 °F /  10.2 °C 30 in /  1014.8 hPa NW 1 mph /  1.6 km/h 2 mph /  3.2 km/h 81 % 0 in /  0.0 mm
22:26 59.4 °F /  15.2 °C 51.8 °F /  11.0 °C 30 in /  1014.8 hPa ESE 3.1 mph /  5.0 km/h 3.1 mph /  5.0 km/h 76 % 0 in /  0.0 mm
22:31 59.4 °F /  15.2 °C 52.2 °F /  11.2 °C 30 in /  1014.8 hPa NE 3.5 mph /  5.6 km/h 3.5 mph /  5.6 km/h 77 % 0 in /  0.0 mm
22:35 55.9 °F /  13.3 °C 50.2 °F /  10.1 °C 30 in /  1014.8 hPa NNE 2 mph /  3.2 km/h 3 mph /  4.8 km/h 81 % 0 in /  0.0 mm
22:36 59.4 °F /  15.2 °C 51.8 °F /  11.0 °C 30 in /  1014.8 hPa East 3.5 mph /  5.6 km/h 3.5 mph /  5.6 km/h 76 % 0 in /  0.0 mm
22:41 59.2 °F /  15.1 °C 52 °F /  11.1 °C 30 in /  1014.8 hPa NNE 4.6 mph /  7.4 km/h 4.6 mph /  7.4 km/h 77 % 0 in /  0.0 mm
22:45 55.6 °F /  13.1 °C 49.8 °F /  9.9 °C 30 in /  1014.8 hPa NNE 3 mph /  4.8 km/h 3 mph /  4.8 km/h 81 % 0 in /  0.0 mm
22:46 59.2 °F /  15.1 °C 52 °F /  11.1 °C 30 in /  1014.8 hPa ESE 3.5 mph /  5.6 km/h 3.5 mph /  5.6 km/h 77 % 0 in /  0.0 mm
22:51 59.2 °F /  15.1 °C 52.3 °F /  11.3 °C 30 in /  1014.8 hPa East 3.5 mph /  5.6 km/h 3.5 mph /  5.6 km/h 78 % 0 in /  0.0 mm
22:55 55.2 °F /  12.9 °C 49.5 °F /  9.7 °C 29.9 in /  1013.8 hPa Calm   2 mph /  3.2 km/h 81 % 0 in /  0.0 mm
22:56 59.2 °F /  15.1 °C 52.3 °F /  11.3 °C 30 in /  1014.8 hPa NNE 2.4 mph /  3.9 km/h 2.4 mph /  3.9 km/h 78 % 0 in /  0.0 mm
23:01 59 °F /  15.0 °C 52.2 °F /  11.2 °C 30 in /  1015.8 hPa ESE 3.5 mph /  5.6 km/h 3.5 mph /  5.6 km/h 78 % 0 in /  0.0 mm
23:05 54.9 °F /  12.7 °C 49.5 °F /  9.7 °C 29.9 in /  1013.8 hPa Calm   2 mph /  3.2 km/h 82 % 0 in /  0.0 mm
23:06 59 °F /  15.0 °C 52.2 °F /  11.2 °C 30 in /  1015.8 hPa ENE 3.3 mph /  5.3 km/h 3.3 mph /  5.3 km/h 78 % 0 in /  0.0 mm
23:11 59 °F /  15.0 °C 52.2 °F /  11.2 °C 30 in /  1015.8 hPa ENE 2.3 mph /  3.7 km/h 2.3 mph /  3.7 km/h 78 % 0 in /  0.0 mm
23:15 54.7 °F /  12.6 °C 49.3 °F /  9.6 °C 29.9 in /  1013.8 hPa Calm     82 % 0 in /  0.0 mm
23:16 58.8 °F /  14.9 °C 52 °F /  11.1 °C 30 in /  1015.8 hPa NE 4.6 mph /  7.4 km/h 4.6 mph /  7.4 km/h 78 % 0 in /  0.0 mm
23:21 58.8 °F /  14.9 °C 52.3 °F /  11.3 °C 30 in /  1015.8 hPa NNE 3.5 mph /  5.6 km/h 3.5 mph /  5.6 km/h 79 % 0 in /  0.0 mm
23:25 54.7 °F /  12.6 °C 49.3 °F /  9.6 °C 29.9 in /  1013.8 hPa Calm     82 % 0 in /  0.0 mm
23:26 58.6 °F /  14.8 °C 52.2 °F /  11.2 °C 30 in /  1015.8 hPa NE 2.3 mph /  3.7 km/h 2.4 mph /  3.9 km/h 79 % 0 in /  0.0 mm
23:31 58.5 °F /  14.7 °C 52 °F /  11.1 °C 30 in /  1015.8 hPa ESE 2.2 mph /  3.5 km/h   79 % 0 in /  0.0 mm
23:35 54.7 °F /  12.6 °C 49.6 °F /  9.8 °C 29.9 in /  1013.8 hPa Calm     83 % 0 in /  0.0 mm
23:36 58.5 °F /  14.7 °C 52 °F /  11.1 °C 30 in /  1015.8 hPa NE 2.3 mph /  3.7 km/h 2.3 mph /  3.7 km/h 79 % 0 in /  0.0 mm
23:41 58.3 °F /  14.6 °C 51.8 °F /  11.0 °C 30 in /  1015.8 hPa ENE 2.3 mph /  3.7 km/h 2.3 mph /  3.7 km/h 79 % 0 in /  0.0 mm
23:45 54.5 °F /  12.5 °C 49.5 °F /  9.7 °C 29.9 in /  1013.8 hPa Calm     83 % 0 in /  0.0 mm
23:46 58.3 °F /  14.6 °C 52.2 °F /  11.2 °C 30 in /  1014.8 hPa East 1.6 mph /  2.6 km/h 1.6 mph /  2.6 km/h 80 % 0 in /  0.0 mm
23:51 58.1 °F /  14.5 °C 52 °F /  11.1 °C 30 in /  1014.8 hPa ENE 2.3 mph /  3.7 km/h 2.3 mph /  3.7 km/h 80 % 0 in /  0.0 mm
23:55 54.7 °F /  12.6 °C 49.6 °F /  9.8 °C 29.9 in /  1012.8 hPa Calm   2 mph /  3.2 km/h 83 % 0 in /  0.0 mm
23:56 58.1 °F /  14.5 °C 52 °F /  11.1 °C 30 in /  1014.8 hPa NE 2.3 mph /  3.7 km/h 2.3 mph /  3.7 km/h 80 % 0 in /  0.0 mm
Meteo Sesrovires
Elogis d' Weather Underground - 3.75 mb

Guio original per  Jim McMurry - jmcmurry@mwt.net Adaptat per a la plantilla per  Wim van der Kuil - Leuven-Template.eu

Trobareu la nostra informacio del temps tambe a:

Weather Underground

AWEKAS